Chicago Rockford International Airport
KRFD : now visible

Airfield :











YOU CAN JOIN US ON...

 
LOGIN :

Register | Disclaimer

   EN    FR    IT 

 









Legend :    VFR   Marginal VFR   IFR   Intensive IFR   Very Intensive IFR
Visi :
Ceiling :
>= 8 km
>= 3000ft
5 to 8 km
1000 to 3000 ft
1500m to 5 km
500 to 1000 ft
800 to 1500m
200 to 500 ft
< 800m
< 200 ft
Symbols :   Thunderstorms  Fog  Heavy snow  Heavy precipitations  Wind > 20 kt






- Airport Elevation : 742 ft
- IATA code : RFD


KRFD - Chicago Rockford International

CURRENT METAR :
  • 241454Z 13010KT 5SM -RA BR OVC005 02/00 A3017 RMK AO2 RAB00 SLP223 P0000 60003 T00220000 58017 $

EXPIRED METARs :
  • 241354Z 13010KT 7SM OVC006 02/M01 A3019 RMK AO2 RAE09SNE09 SLP229 P0000 T00171006 $
  • 241254Z 12008KT 6SM -RASN BR BKN005 BKN020 OVC025 01/M01 A3020 RMK AO2 RAB51 SLP235 P0003 T00111006 $
  • 241227Z 14009KT 5SM -SN BR OVC006 01/M01 A3021 RMK AO2 P0002 T00111006 $
  • 241216Z 14007KT 4SM -SN BR OVC004 01/M01 A3021 RMK AO2 P0002 T00111006 $

TAF KRFD
Valid from the 24 at 12:00 until the 25 at 12:00 UTC


241127Z 2412/2512 14009KT 2SM -SNRA BR SCT005 OVC008
FM241300 15010KT 3SM -RASN OVC008
FM241400 15013G18KT 4SM -RA BR OVC008
FM250000 16010KT 4SM -RA BR OVC012
FM250600 18006KT 2SM -SHRA BR OVC005
KZAU FIR / North America



MET'MAP, your aeronautical weather chart ! - Copyright ORBIFLY December 2007 - Disclaimer

ORBIFLY MET'MAP TEAM :

Programming & Development : Alexandra Zaïnal
Concept & original design : Baudouin d'Aumeries
Assistance for programming : Marc-Olivier Méhu
Technical & hardware support : Manuel Goepfert

Contact : metmap@orbifly.com




SOURCES & CREDITS :

   NOAA       Earth
Advisory